• Join FlightAware (Why Join?)
  • Login
  • US Flag 
01:54AM EDT


 

Airport Tracker/Info


-or-


 

Live Flight TrackerFlight Track Log ✈ C-FRLW ✈ 30-Dec-2013 ✈ CYBW - CYQR

Flight Track Log - Related Links

Times and Time Zones

All times are in EST time to prevent confusion due to time zone crossing. See the C-FRLW flight status page for this flight to view local times or setup timezone preferences in your user account.

Time Position Orientation Groundspeed Altitude Reporting Facility
EST Latitude Longitude Course Direction KTS MPH feet Rate Location/Type
12:25PM 51.0333 -114.4000 94° East 90 104 5,400  Level Edmonton Center
12:26PM 51.0000 -114.4000 180° South 110 127 6,300 660 Climbing Edmonton Center
12:27PM 51.0000 -114.3333 90° East 140 161 6,800 660 Climbing Edmonton Center
12:28PM 50.9833 -114.2833 118° Southeast 150 173 7,700 840 Climbing Edmonton Center
12:29PM 50.9500 -114.2167 128° Southeast 160 184 8,500 900 Climbing Edmonton Center
12:30PM 50.9333 -114.1667 118° Southeast 150 173 9,600 840 Climbing Edmonton Center
12:31PM 51.0829 -113.6980 94° East  Level Estimated
12:31PM 50.9500 -114.1167 62° Northeast 150 173 10,200  Level Edmonton Center
12:32PM 50.9667 -114.0333 72° East 160 184 11,100 840 Climbing Edmonton Center
12:33PM 50.9833 -113.9833 62° Northeast 150 173 11,900 840 Climbing Edmonton Center
12:34PM 51.0000 -113.9000 72° East 150 173 12,800 540 Climbing Edmonton Center
12:35PM 51.0167 -113.8500 62° Northeast 170 196 13,000 60 Climbing Edmonton Center
12:36PM 51.0167 -113.7500 90° East 190 219 13,000  Level Edmonton Center
12:37PM 51.0500 -113.6667 58° Northeast 200 230 13,000  Level Edmonton Center
12:38PM 51.0667 -113.6000 68° East 200 230 13,000  Level Edmonton Center
12:39PM 51.1000 -113.5167 57° Northeast 200 230 13,000  Level Edmonton Center
12:40PM 51.1000 -113.4167 90° East 200 230 13,000  Level Edmonton Center
12:41PM 51.1167 -113.3333 72° East 210 242 13,000  Level Edmonton Center
12:42PM 51.1167 -113.2333 90° East 220 253 13,000  Level Edmonton Center
12:43PM 51.1000 -113.1167 103° East 230 265 13,000  Level Edmonton Center
12:44PM 51.1000 -113.0333 90° East 230 265 13,000  Level Edmonton Center
12:45PM 51.0833 -112.9333 105° East 220 253 13,000  Level Edmonton Center
12:46PM 51.1000 -112.8500 72° East 220 253 13,000  Level Edmonton Center
12:47PM 51.0833 -112.7333 103° East 220 253 13,000  Level Edmonton Center
12:48PM 51.0667 -112.6333 105° East 220 253 13,000  Level Edmonton Center
12:49PM 51.0833 -112.5500 72° East 220 253 13,000  Level Edmonton Center
12:50PM 51.0667 -112.4333 103° East 220 253 13,000  Level Edmonton Center
12:51PM 51.0667 -112.3333 90° East 220 253 13,000  Level Edmonton Center
12:52PM 51.0667 -112.2500 90° East 220 253 13,000  Level Edmonton Center
12:53PM 51.0500 -112.1333 103° East 220 253 13,000 120 Level Edmonton Center
12:54PM 51.0667 -112.1167 32° Northeast 230 265 13,200 120 Climbing Winnipeg Center
12:55PM 51.0667 -112.0333 90° East 230 265 13,200  Level Winnipeg Center
12:56PM 51.0333 -111.9167 114° Southeast 220 253 13,200  Level Winnipeg Center
12:57PM 51.0333 -111.8167 90° East 220 253 13,200  Level Winnipeg Center
12:58PM 51.0333 -111.7333 90° East 220 253 13,200  Level Winnipeg Center
12:59PM 51.0333 -111.6167 90° East 220 253 13,200  Level Winnipeg Center
01:00PM 51.0167 -111.5333 108° East 220 253 13,200 240 Level Winnipeg Center
01:01PM 51.0167 -111.4167 90° East 220 253 13,700 420 Climbing Winnipeg Center
01:02PM 51.0167 -111.3500 90° East 210 242 14,100 540 Climbing Winnipeg Center
01:03PM 51.0000 -111.2667 108° East 200 230 14,800 420 Climbing Winnipeg Center
01:04PM 51.0000 -111.1833 90° East 200 230 15,000 60 Climbing Winnipeg Center
01:05PM 51.0000 -111.0667 90° East 220 253 15,000  Level Winnipeg Center
01:06PM 51.0000 -110.9500 90° East 230 265 15,000 -60 Level Winnipeg Center
01:07PM 50.9833 -110.8833 112° Southeast 240 276 14,900 -60 Descending Winnipeg Center
01:08PM 50.9667 -110.7667 103° East 240 276 14,900  Level Winnipeg Center
01:09PM 50.9667 -110.6500 90° East 240 276 14,900  Level Winnipeg Center
01:10PM 50.9500 -110.5500 105° East 240 276 14,900  Level Winnipeg Center
01:11PM 50.9500 -110.4667 90° East 240 276 14,900  Level Winnipeg Center
01:12PM 50.9500 -110.3500 90° East 240 276 14,900  Level Winnipeg Center
01:13PM 50.9333 -110.2333 103° East 240 276 14,900  Level Winnipeg Center
01:14PM 50.9167 -110.1333 105° East 240 276 14,900  Level Winnipeg Center
01:15PM 50.9167 -110.0167 90° East 240 276 15,000  Climbing Winnipeg Center
01:16PM 50.9167 -109.9333 90° East 240 276 15,000  Level Winnipeg Center
01:17PM 50.9000 -109.8333 105° East 240 276 15,000  Level Winnipeg Center
01:18PM 50.9000 -109.7167 90° East 240 276 15,000  Level Winnipeg Center
01:19PM 50.8833 -109.6000 103° East 240 276 15,000  Level Winnipeg Center
01:20PM 50.8667 -109.5000 105° East 240 276 15,000  Level Winnipeg Center
01:21PM 50.8667 -109.3833 90° East 240 276 15,000  Level Winnipeg Center
01:22PM 50.8667 -109.2833 90° East 240 276 15,000  Level Winnipeg Center
01:23PM 50.8500 -109.1667 103° East 240 276 15,000  Level Winnipeg Center
01:24PM 50.8500 -109.0667 90° East 240 276 15,000  Level Winnipeg Center
01:25PM 50.8500 -108.9833 90° East 240 276 15,000  Level Winnipeg Center
01:26PM 50.8333 -108.8667 103° East 240 276 15,000  Level Winnipeg Center
01:27PM 50.8333 -108.7667 90° East 240 276 15,000  Level Winnipeg Center
01:28PM 50.8333 -108.6500 90° East 240 276 15,000  Level Winnipeg Center
01:29PM 50.8167 -108.5500 105° East 250 288 15,000  Level Winnipeg Center
01:30PM 50.8167 -108.4333 90° East 250 288 15,000  Level Winnipeg Center
01:31PM 50.8000 -108.3333 105° East 240 276 15,000 -60 Level Winnipeg Center
01:32PM 50.7833 -108.2167 103° East 240 276 14,900 -60 Descending Winnipeg Center
01:33PM 50.7833 -108.1167 90° East 220 253 14,900  Level Winnipeg Center
01:34PM 50.7500 -108.0000 114° Southeast 270 311 14,900  Level Winnipeg Center
01:35PM 50.7500 -107.8833 90° East 240 276 14,900  Level Winnipeg Center
01:36PM 50.7500 -107.8167 90° East 250 288 14,900  Level Winnipeg Center
01:37PM 50.7333 -107.6833 101° East 250 288 14,900  Level Winnipeg Center
01:38PM 50.7333 -107.6000 90° East 250 288 14,900  Level Winnipeg Center
01:39PM 50.7000 -107.4500 109° East 250 288 14,900  Level Winnipeg Center
01:40PM 50.7000 -107.3500 90° East 250 288 14,900  Level Winnipeg Center
01:41PM 50.7000 -107.2333 90° East 250 288 14,900  Level Winnipeg Center
01:42PM 50.6667 -107.0667 107° East 250 288 15,000 -60 Climbing Edmonton Center
01:43PM 50.6500 -106.9667 105° East 250 288 14,800 -360 Descending Edmonton Center
01:44PM 50.6333 -106.8500 103° East 270 311 14,300 -540 Descending Edmonton Center
01:45PM 50.6333 -106.8000 90° East 270 311 14,000 -600 Descending Winnipeg Center
01:46PM 50.6167 -106.7000 105° East 260 299 13,400 -540 Descending Winnipeg Center
01:47PM 50.6167 -106.5833 90° East 260 299 13,000 -480 Descending Winnipeg Center
01:48PM 50.6167 -106.4500 90° East 260 299 12,500 -480 Descending Winnipeg Center
01:49PM 50.6000 -106.3500 105° East 260 299 12,100 -480 Descending Winnipeg Center
01:50PM 50.6000 -106.2333 90° East 250 288 11,600 -540 Descending Winnipeg Center
01:51PM 50.5833 -106.1333 105° East 250 288 11,100 -480 Descending Winnipeg Center
01:52PM 50.5833 -106.0167 90° East 250 288 10,700 -540 Descending Winnipeg Center
01:53PM 50.5667 -105.9167 105° East 240 276 10,100 -600 Descending Winnipeg Center
01:54PM 50.5667 -105.8333 90° East 240 276 9,500 -600 Descending Winnipeg Center
01:55PM 50.5500 -105.7167 103° East 240 276 9,000 -540 Descending Winnipeg Center
01:56PM 50.5500 -105.6167 90° East 230 265 8,500 -420 Descending Winnipeg Center
01:57PM 50.5167 -105.5333 122° Southeast 230 265 8,200 -420 Descending Winnipeg Center
01:58PM 50.5000 -105.4167 103° East 230 265 7,700 -540 Descending Winnipeg Center
01:59PM 50.5000 -105.3167 90° East 220 253 7,200 -540 Descending Winnipeg Center
02:00PM 50.4833 -105.2333 107° East 220 253 6,700 -420 Descending Winnipeg Center
02:01PM 50.4833 -105.1333 90° East 210 242 6,400 -420 Descending Winnipeg Center
02:02PM 50.4667 -105.0500 107° East 210 242 5,900 -600 Descending Winnipeg Center
02:03PM 50.4333 -104.9667 122° Southeast 200 230 5,300 -600 Descending Winnipeg Center
02:04PM 50.4333 -104.8833 90° East 210 242 4,800 -420 Descending Winnipeg Center
02:05PM 50.4000 -104.8000 122° Southeast 190 219 4,500 -480 Descending Winnipeg Center
02:06PM 50.3667 -104.7333 128° Southeast 190 219 3,900 -540 Descending Winnipeg Center
02:07PM 50.3500 -104.6667 111° Southeast 160 184 3,500 -540 Descending Winnipeg Center
02:08PM 50.3833 -104.6333 33° Northeast 100 115 2,900 -600 Descending Winnipeg Center
02:09PM 50.4000 -104.6333 360° North 70 81 2,400 -480 Descending Winnipeg Center
02:10PM 50.4000 -104.6667 270° West 70 81 2,000 -240 Descending Winnipeg Center
02:12PM 50.4167 -104.7000 308° West 20 23 1,900 -120 Descending Winnipeg Center